Time;durP1;ratioP1;P1;durP2;ratioP2;P2;SDS_P1;SDS_P2;PMS_P1;PMS_P2;Temp;Humidity;BMP_temperature;BMP_pressure;BME280_temperature;BME280_humidity;BME280_pressure;Samples;Min_cycle;Max_cycle;Signal;HPM_P1;HPM_P2
2021/07/09 00:01:53;;;;;;;;;;;26.70;62.30;;;;;;5030339;28;19929;-60
2021/07/09 00:04:22;;;;;;;;;;;26.60;62.20;;;;;;5030260;28;19959;-60
2021/07/09 00:06:49;;;;;;;;;;;26.60;62.00;;;;;;5030196;28;20103;-60
2021/07/09 00:09:16;;;;;;;;;;;26.60;62.00;;;;;;5028930;28;19975;-60
2021/07/09 00:11:45;;;;;;;;;;;26.60;62.00;;;;;;5028793;28;19929;-60
2021/07/09 00:14:13;;;;;;;;;;;26.60;61.90;;;;;;5030184;28;19932;-60
2021/07/09 00:16:41;;;;;;;;;;;26.60;62.00;;;;;;5030130;28;19936;-60
2021/07/09 00:19:10;;;;;;;;;;;26.60;62.00;;;;;;5068061;28;19978;-60
2021/07/09 00:21:37;;;;;;;;;;;26.50;61.80;;;;;;5129632;28;19932;-60
2021/07/09 00:24:06;;;;;;;;;;;26.50;61.80;;;;;;5131238;28;19992;-60
2021/07/09 00:26:33;;;;;;;;;;;26.50;61.90;;;;;;5131729;28;19932;-60
2021/07/09 00:29:02;;;;;;;;;;;26.50;61.90;;;;;;5130784;28;19923;-60
2021/07/09 00:31:29;;;;;;;;;;;26.50;61.90;;;;;;5114200;28;19923;-60
2021/07/09 00:33:57;;;;;;;;;;;26.50;61.90;;;;;;5132257;28;20429;-60
2021/07/09 00:36:24;;;;;;;;;;;26.50;61.90;;;;;;5132993;28;20010;-60
2021/07/09 00:38:51;;;;;;;;;;;26.50;61.80;;;;;;5129699;28;19962;-60
2021/07/09 00:41:18;;;;;;;;;;;26.40;61.60;;;;;;5116019;28;19928;-60
2021/07/09 00:43:46;;;;;;;;;;;26.40;61.70;;;;;;5127313;28;19923;-60
2021/07/09 00:46:13;;;;;;;;;;;26.40;61.70;;;;;;5129428;28;19923;-60
2021/07/09 00:48:40;;;;;;;;;;;26.40;61.60;;;;;;5129310;28;19930;-60
2021/07/09 00:51:08;;;;;;;;;;;26.40;61.50;;;;;;5131324;27;19924;-60
2021/07/09 00:53:35;;;;;;;;;;;26.40;61.60;;;;;;5135615;27;19976;-60
2021/07/09 00:56:03;;;;;;;;;;;26.40;61.50;;;;;;5118390;27;19949;-60
2021/07/09 00:58:30;;;;;;;;;;;26.40;61.60;;;;;;5134369;27;20014;-60
2021/07/09 01:00:57;;;;;;;;;;;26.40;61.50;;;;;;5135903;27;19927;-60
2021/07/09 01:03:25;;;;;;;;;;;26.40;61.40;;;;;;5133960;27;19945;-60
2021/07/09 01:05:52;;;;;;;;;;;26.40;61.30;;;;;;5134322;27;20387;-60
2021/07/09 01:08:19;;;;;;;;;;;26.30;61.40;;;;;;5134623;27;19923;-60
2021/07/09 01:10:46;;;;;;;;;;;26.40;61.50;;;;;;5135309;27;19923;-60
2021/07/09 01:13:13;;;;;;;;;;;26.30;61.30;;;;;;5133236;27;19930;-60
2021/07/09 01:15:40;;;;;;;;;;;26.30;61.30;;;;;;5133863;27;19977;-60
2021/07/09 01:18:07;;;;;;;;;;;26.30;61.30;;;;;;5135015;27;19924;-60
2021/07/09 01:20:34;;;;;;;;;;;26.30;61.30;;;;;;5115962;28;19924;-60
2021/07/09 01:23:02;;;;;;;;;;;26.30;61.40;;;;;;5133954;27;19932;-60
2021/07/09 01:25:29;;;;;;;;;;;26.30;61.30;;;;;;5134752;27;20328;-60
2021/07/09 01:28:07;;;;;;;;;;;26.30;61.30;;;;;;5133779;27;19924;-60
2021/07/09 01:30:35;;;;;;;;;;;26.30;61.20;;;;;;5117175;27;19924;-60
2021/07/09 01:33:03;;;;;;;;;;;26.30;61.40;;;;;;5133913;27;19969;-60
2021/07/09 01:35:30;;;;;;;;;;;26.30;61.20;;;;;;5133589;27;20328;-60
2021/07/09 01:37:59;;;;;;;;;;;26.30;61.30;;;;;;5132912;27;19942;-60
2021/07/09 01:40:27;;;;;;;;;;;26.30;61.30;;;;;;5133411;27;19972;-60
2021/07/09 01:42:54;;;;;;;;;;;26.30;61.20;;;;;;5134029;27;19923;-60
2021/07/09 01:45:22;;;;;;;;;;;26.30;61.20;;;;;;5133900;27;19923;-60
2021/07/09 01:47:49;;;;;;;;;;;26.20;61.10;;;;;;5132838;27;19984;-60
2021/07/09 01:50:18;;;;;;;;;;;26.20;61.10;;;;;;5135673;27;19942;-60
2021/07/09 01:52:45;;;;;;;;;;;26.20;61.00;;;;;;5133713;27;19973;-60
2021/07/09 01:55:13;;;;;;;;;;;26.20;61.10;;;;;;5133406;27;19931;-60
2021/07/09 01:57:41;;;;;;;;;;;26.20;61.10;;;;;;5133248;27;19945;-60
2021/07/09 02:00:09;;;;;;;;;;;26.20;61.10;;;;;;5132171;27;20074;-60
2021/07/09 02:02:36;;;;;;;;;;;26.20;60.90;;;;;;5131868;27;20317;-60
2021/07/09 02:05:05;;;;;;;;;;;26.20;60.90;;;;;;5134459;27;19923;-60
2021/07/09 02:07:32;;;;;;;;;;;26.20;61.00;;;;;;5131852;27;19968;-60
2021/07/09 02:09:59;;;;;;;;;;;26.20;61.00;;;;;;5115412;27;19924;-60
2021/07/09 02:12:27;;;;;;;;;;;26.20;60.80;;;;;;5134539;27;19972;-60
2021/07/09 02:14:54;;;;;;;;;;;26.20;61.00;;;;;;5130528;27;19923;-60
2021/07/09 02:17:22;;;;;;;;;;;26.20;60.90;;;;;;5103477;27;19931;-60
2021/07/09 02:19:49;;;;;;;;;;;26.20;60.90;;;;;;5134355;27;19977;-60
2021/07/09 02:22:16;;;;;;;;;;;26.20;60.90;;;;;;5131838;27;19923;-60
2021/07/09 02:24:44;;;;;;;;;;;26.20;61.00;;;;;;5133644;27;19976;-60
2021/07/09 02:27:12;;;;;;;;;;;26.20;61.00;;;;;;5132276;27;19931;-60
2021/07/09 02:29:39;;;;;;;;;;;26.20;60.90;;;;;;5132495;27;19931;-60
2021/07/09 02:32:07;;;;;;;;;;;26.20;61.10;;;;;;5133086;27;19996;-60
2021/07/09 02:34:35;;;;;;;;;;;26.20;61.10;;;;;;5133966;27;19968;-60
2021/07/09 02:37:02;;;;;;;;;;;26.20;61.10;;;;;;5117044;27;19969;-60
2021/07/09 02:39:30;;;;;;;;;;;26.20;61.20;;;;;;5130902;27;19923;-60
2021/07/09 02:41:57;;;;;;;;;;;26.20;61.10;;;;;;5133656;27;19972;-60
2021/07/09 02:44:25;;;;;;;;;;;26.20;61.10;;;;;;5131524;27;19923;-60
2021/07/09 02:46:52;;;;;;;;;;;26.20;61.10;;;;;;5131381;27;19929;-60
2021/07/09 02:49:20;;;;;;;;;;;26.20;61.10;;;;;;5120683;27;19955;-60
2021/07/09 02:51:48;;;;;;;;;;;26.20;61.10;;;;;;5129604;27;20113;-60
2021/07/09 02:54:14;;;;;;;;;;;26.10;61.10;;;;;;5132003;27;19924;-59
2021/07/09 02:56:41;;;;;;;;;;;26.10;61.00;;;;;;5130895;27;20397;-60
2021/07/09 02:59:09;;;;;;;;;;;26.10;61.10;;;;;;5131870;27;19927;-60
2021/07/09 03:01:40;;;;;;;;;;;26.10;61.20;;;;;;5131734;27;19975;-60
2021/07/09 03:04:08;;;;;;;;;;;26.10;61.20;;;;;;5133204;27;19924;-60
2021/07/09 03:06:35;;;;;;;;;;;26.10;61.20;;;;;;5132075;27;19923;-60
2021/07/09 03:09:03;;;;;;;;;;;26.10;61.30;;;;;;5133021;27;19924;-60
2021/07/09 03:11:31;;;;;;;;;;;26.00;61.20;;;;;;5131974;27;19972;-60
2021/07/09 03:13:58;;;;;;;;;;;26.00;61.30;;;;;;5132270;27;20444;-60
2021/07/09 03:16:25;;;;;;;;;;;26.10;61.40;;;;;;5134421;27;19927;-60
2021/07/09 03:18:52;;;;;;;;;;;26.00;61.30;;;;;;5132666;27;19923;-60
2021/07/09 03:21:19;;;;;;;;;;;26.00;61.30;;;;;;5134152;27;20413;-60
2021/07/09 03:23:46;;;;;;;;;;;26.00;61.30;;;;;;5131739;27;19924;-60
2021/07/09 03:26:13;;;;;;;;;;;26.00;61.40;;;;;;5132345;27;20017;-60
2021/07/09 03:28:40;;;;;;;;;;;26.00;61.40;;;;;;5113763;27;20390;-60
2021/07/09 03:31:08;;;;;;;;;;;26.00;61.40;;;;;;5133171;27;20426;-60
2021/07/09 03:33:35;;;;;;;;;;;26.00;61.50;;;;;;5133641;27;20402;-60
2021/07/09 03:36:03;;;;;;;;;;;26.00;61.50;;;;;;5124451;27;19924;-60
2021/07/09 03:38:30;;;;;;;;;;;26.00;61.50;;;;;;5129856;27;19930;-60
2021/07/09 03:40:57;;;;;;;;;;;26.00;61.40;;;;;;5133668;27;19930;-59
2021/07/09 03:43:24;;;;;;;;;;;26.00;61.40;;;;;;5131313;27;19923;-60
2021/07/09 03:45:51;;;;;;;;;;;26.00;61.50;;;;;;5131668;27;20010;-60
2021/07/09 03:48:18;;;;;;;;;;;26.00;61.60;;;;;;5132529;27;19974;-60
2021/07/09 03:50:45;;;;;;;;;;;26.00;61.50;;;;;;5131123;27;20419;-60
2021/07/09 03:53:12;;;;;;;;;;;26.00;61.50;;;;;;5131318;27;19927;-60
2021/07/09 03:55:39;;;;;;;;;;;26.00;61.50;;;;;;5112976;28;19950;-60
2021/07/09 03:58:06;;;;;;;;;;;26.00;61.60;;;;;;5129641;27;19931;-60
2021/07/09 04:00:33;;;;;;;;;;;26.00;61.60;;;;;;5125006;27;19924;-59
2021/07/09 04:02:59;;;;;;;;;;;26.00;61.50;;;;;;5121129;28;19927;-60
2021/07/09 04:05:26;;;;;;;;;;;26.00;61.50;;;;;;5126497;28;19924;-60
2021/07/09 04:07:53;;;;;;;;;;;26.00;61.60;;;;;;5120942;28;20367;-60
2021/07/09 04:10:20;;;;;;;;;;;26.00;61.60;;;;;;5132540;28;19955;-60
2021/07/09 04:12:47;;;;;;;;;;;26.00;61.70;;;;;;5130868;28;20379;-60
2021/07/09 04:15:14;;;;;;;;;;;26.00;61.60;;;;;;5131101;28;20380;-60
2021/07/09 04:17:41;;;;;;;;;;;26.00;61.50;;;;;;5129994;28;19996;-60
2021/07/09 04:20:08;;;;;;;;;;;26.00;61.50;;;;;;5130480;28;19976;-60
2021/07/09 04:22:36;;;;;;;;;;;26.00;61.50;;;;;;5130989;28;19928;-60
2021/07/09 04:25:04;;;;;;;;;;;26.00;61.60;;;;;;5133726;27;19963;-60
2021/07/09 04:27:31;;;;;;;;;;;26.00;61.50;;;;;;5135588;27;19988;-60
2021/07/09 04:29:58;;;;;;;;;;;26.00;61.50;;;;;;5135389;27;19962;-60
2021/07/09 04:32:25;;;;;;;;;;;26.00;61.50;;;;;;5136492;27;19959;-60
2021/07/09 04:34:52;;;;;;;;;;;26.00;61.40;;;;;;5136314;27;19993;-60
2021/07/09 04:37:19;;;;;;;;;;;26.00;61.50;;;;;;5133360;27;20385;-60
2021/07/09 04:39:46;;;;;;;;;;;26.10;61.40;;;;;;5100056;28;19924;-60
2021/07/09 04:42:13;;;;;;;;;;;26.10;61.40;;;;;;5128937;27;19968;-60
2021/07/09 04:44:40;;;;;;;;;;;26.10;61.40;;;;;;5135830;27;19923;-60
2021/07/09 04:47:07;;;;;;;;;;;26.10;61.30;;;;;;5133437;27;19923;-60
2021/07/09 04:49:34;;;;;;;;;;;26.10;61.30;;;;;;5134642;27;20282;-59
2021/07/09 04:52:01;;;;;;;;;;;26.10;61.20;;;;;;5127267;27;19924;-60
2021/07/09 04:54:28;;;;;;;;;;;26.10;61.20;;;;;;5125150;27;19923;-60
2021/07/09 04:56:55;;;;;;;;;;;26.10;61.20;;;;;;5129029;27;20351;-59
2021/07/09 04:59:22;;;;;;;;;;;26.10;61.10;;;;;;5119018;27;19924;-60
2021/07/09 05:01:50;;;;;;;;;;;26.10;61.10;;;;;;5118827;27;19977;-60
2021/07/09 05:04:19;;;;;;;;;;;26.10;61.10;;;;;;5100304;28;20201;-60
2021/07/09 05:06:46;;;;;;;;;;;26.10;61.10;;;;;;5128944;27;19948;-60
2021/07/09 05:09:13;;;;;;;;;;;26.10;61.00;;;;;;5133062;27;19955;-60
2021/07/09 05:11:39;;;;;;;;;;;26.10;61.10;;;;;;5136497;27;19976;-60
2021/07/09 05:14:06;;;;;;;;;;;26.10;61.00;;;;;;5133019;27;19959;-60
2021/07/09 05:16:36;;;;;;;;;;;26.10;61.00;;;;;;5135120;27;19931;-60
2021/07/09 05:19:03;;;;;;;;;;;26.10;61.00;;;;;;5136403;27;19927;-60
2021/07/09 05:21:31;;;;;;;;;;;26.10;61.00;;;;;;5134194;27;19969;-60
2021/07/09 05:23:59;;;;;;;;;;;26.10;60.90;;;;;;5134214;27;19923;-60
2021/07/09 05:26:26;;;;;;;;;;;26.20;60.90;;;;;;5134829;27;20290;-59
2021/07/09 05:28:53;;;;;;;;;;;26.20;60.80;;;;;;5133822;27;19924;-60
2021/07/09 05:31:20;;;;;;;;;;;26.20;60.80;;;;;;5134209;27;19958;-60
2021/07/09 05:33:47;;;;;;;;;;;26.20;60.80;;;;;;5132305;27;19930;-60
2021/07/09 05:36:14;;;;;;;;;;;26.20;60.70;;;;;;5123686;27;19931;-60
2021/07/09 05:38:41;;;;;;;;;;;26.20;60.70;;;;;;5129621;27;19946;-60
2021/07/09 05:41:08;;;;;;;;;;;26.20;60.70;;;;;;5132409;27;20329;-60
2021/07/09 05:43:35;;;;;;;;;;;26.20;60.70;;;;;;5132340;27;19923;-60
2021/07/09 05:46:02;;;;;;;;;;;26.20;60.60;;;;;;5133489;27;20048;-60
2021/07/09 05:48:29;;;;;;;;;;;26.30;60.60;;;;;;5133462;27;20347;-60
2021/07/09 05:50:56;;;;;;;;;;;26.30;60.50;;;;;;5116099;27;19927;-60
2021/07/09 05:53:23;;;;;;;;;;;26.30;60.40;;;;;;5134591;27;20388;-60
2021/07/09 05:55:50;;;;;;;;;;;26.40;60.30;;;;;;5133458;27;19977;-60
2021/07/09 05:58:18;;;;;;;;;;;26.40;60.30;;;;;;5134654;27;19924;-60
2021/07/09 06:00:45;;;;;;;;;;;26.40;60.20;;;;;;5133297;27;19953;-60
2021/07/09 06:03:12;;;;;;;;;;;26.50;60.10;;;;;;5133021;27;19970;-60
2021/07/09 06:05:39;;;;;;;;;;;26.50;60.00;;;;;;5131556;27;20013;-60
2021/07/09 06:08:07;;;;;;;;;;;26.50;60.00;;;;;;5117156;27;19930;-60
2021/07/09 06:10:35;;;;;;;;;;;26.60;59.90;;;;;;5134249;27;19923;-60
2021/07/09 06:13:05;;;;;;;;;;;26.60;59.70;;;;;;5116582;27;19969;-60
2021/07/09 06:15:33;;;;;;;;;;;26.60;59.60;;;;;;5117259;27;19931;-60
2021/07/09 06:18:16;;;;;;;;;;;26.70;59.60;;;;;;5117534;27;20322;-60
2021/07/09 06:20:43;;;;;;;;;;;26.70;59.50;;;;;;5134022;27;19930;-60
2021/07/09 06:23:10;;;;;;;;;;;26.70;59.50;;;;;;5115899;27;19971;-60
2021/07/09 06:25:37;;;;;;;;;;;26.70;59.40;;;;;;5133356;27;19923;-60
2021/07/09 06:28:05;;;;;;;;;;;26.80;59.30;;;;;;5133347;27;19923;-60
2021/07/09 06:30:31;;;;;;;;;;;26.80;59.20;;;;;;5131198;27;19993;-60
2021/07/09 06:32:59;;;;;;;;;;;26.80;59.00;;;;;;5132442;27;19967;-60
2021/07/09 06:35:29;;;;;;;;;;;26.80;59.00;;;;;;5132298;27;19963;-56
2021/07/09 06:37:56;;;;;;;;;;;26.80;59.10;;;;;;5134285;27;20006;-58
2021/07/09 06:40:24;;;;;;;;;;;26.80;58.90;;;;;;5133930;27;20003;-57
2021/07/09 06:42:52;;;;;;;;;;;26.80;58.90;;;;;;5135081;27;19930;-58
2021/07/09 06:45:20;;;;;;;;;;;26.80;58.80;;;;;;5123874;27;19927;-59
2021/07/09 06:47:47;;;;;;;;;;;26.80;58.90;;;;;;5127523;27;19923;-60
2021/07/09 06:50:14;;;;;;;;;;;26.80;58.80;;;;;;5132184;27;20348;-60
2021/07/09 06:52:42;;;;;;;;;;;26.90;58.80;;;;;;5124741;27;20328;-60
2021/07/09 06:55:09;;;;;;;;;;;26.90;58.70;;;;;;5097052;28;19974;-60
2021/07/09 06:57:36;;;;;;;;;;;26.90;58.60;;;;;;5122459;27;20003;-60
2021/07/09 07:00:06;;;;;;;;;;;26.90;58.60;;;;;;5131151;27;19963;-60
2021/07/09 07:02:33;;;;;;;;;;;26.90;58.50;;;;;;5132013;27;20034;-60
2021/07/09 07:05:01;;;;;;;;;;;26.90;58.40;;;;;;5131987;27;19970;-60
2021/07/09 07:07:28;;;;;;;;;;;26.90;58.40;;;;;;5130490;27;19924;-60
2021/07/09 07:09:55;;;;;;;;;;;26.90;58.30;;;;;;5133460;27;19930;-60
2021/07/09 07:12:22;;;;;;;;;;;26.90;57.90;;;;;;5133029;27;19946;-60
2021/07/09 07:14:49;;;;;;;;;;;26.90;57.90;;;;;;5130674;27;20090;-60
2021/07/09 07:17:16;;;;;;;;;;;26.90;57.90;;;;;;5132326;27;20002;-60
2021/07/09 07:19:43;;;;;;;;;;;26.90;57.80;;;;;;5131987;27;19923;-60
2021/07/09 07:22:11;;;;;;;;;;;27.00;57.60;;;;;;5132157;27;19928;-60
2021/07/09 07:24:38;;;;;;;;;;;27.00;57.70;;;;;;5132987;27;19923;-60
2021/07/09 07:27:05;;;;;;;;;;;27.00;57.40;;;;;;5133253;27;19974;-60
2021/07/09 07:29:32;;;;;;;;;;;27.00;57.20;;;;;;5131367;27;19970;-60
2021/07/09 07:31:59;;;;;;;;;;;26.90;57.10;;;;;;5130532;27;19934;-60
2021/07/09 07:34:26;;;;;;;;;;;26.90;56.80;;;;;;5130120;27;19923;-60
2021/07/09 07:36:53;;;;;;;;;;;27.00;56.80;;;;;;5119320;27;20368;-60
2021/07/09 07:39:20;;;;;;;;;;;27.00;56.80;;;;;;5129517;27;20015;-60
2021/07/09 07:41:47;;;;;;;;;;;27.00;56.70;;;;;;5131085;27;19930;-60
2021/07/09 07:44:14;;;;;;;;;;;27.00;56.60;;;;;;5129748;27;19923;-60
2021/07/09 07:46:41;;;;;;;;;;;27.00;56.50;;;;;;5132343;27;19927;-60
2021/07/09 07:49:08;;;;;;;;;;;27.00;56.40;;;;;;5131368;27;19970;-60
2021/07/09 07:51:35;;;;;;;;;;;27.10;56.40;;;;;;5130210;27;20355;-59
2021/07/09 07:54:02;;;;;;;;;;;27.10;56.20;;;;;;5131658;27;19923;-59
2021/07/09 07:56:29;;;;;;;;;;;27.10;56.10;;;;;;5131232;27;19978;-59
2021/07/09 07:58:56;;;;;;;;;;;27.10;56.00;;;;;;5130563;27;19992;-59
2021/07/09 08:01:25;;;;;;;;;;;27.10;56.10;;;;;;5132283;27;19968;-60
2021/07/09 08:03:52;;;;;;;;;;;27.20;55.90;;;;;;5131472;27;20328;-59
2021/07/09 08:06:20;;;;;;;;;;;27.20;55.90;;;;;;5132400;28;19967;-59
2021/07/09 08:08:46;;;;;;;;;;;27.20;55.80;;;;;;5131282;28;19928;-59
2021/07/09 08:11:13;;;;;;;;;;;27.20;55.60;;;;;;5129669;28;19996;-60
2021/07/09 08:13:40;;;;;;;;;;;27.30;55.70;;;;;;5130678;28;19924;-60
2021/07/09 08:16:08;;;;;;;;;;;27.20;55.60;;;;;;5133035;28;19923;-60
2021/07/09 08:18:36;;;;;;;;;;;27.20;55.60;;;;;;5133268;28;19923;-60
2021/07/09 08:21:03;;;;;;;;;;;27.20;55.60;;;;;;5130516;28;19930;-60
2021/07/09 08:23:30;;;;;;;;;;;27.30;55.50;;;;;;5132326;28;20264;-60
2021/07/09 08:25:57;;;;;;;;;;;27.30;55.30;;;;;;5129546;28;19924;-60
2021/07/09 08:28:25;;;;;;;;;;;27.30;55.20;;;;;;5132907;28;19980;-59
2021/07/09 08:30:52;;;;;;;;;;;27.30;55.20;;;;;;5099620;28;20006;-59
2021/07/09 08:33:19;;;;;;;;;;;27.30;55.10;;;;;;5128845;28;20345;-59
2021/07/09 08:35:46;;;;;;;;;;;27.30;55.10;;;;;;5119303;28;19923;-59
2021/07/09 08:38:13;;;;;;;;;;;27.30;55.00;;;;;;5125102;28;19923;-60
2021/07/09 08:40:40;;;;;;;;;;;27.40;54.80;;;;;;5121833;28;20340;-59
2021/07/09 08:43:27;;;;;;;;;;;27.40;54.90;;;;;;5127422;28;19931;-59
2021/07/09 08:45:54;;;;;;;;;;;27.40;54.80;;;;;;5132902;28;19952;-59
2021/07/09 08:48:24;;;;;;;;;;;27.40;54.70;;;;;;5129714;28;20014;-59
2021/07/09 08:50:54;;;;;;;;;;;27.40;54.60;;;;;;5132900;28;19973;-59
2021/07/09 08:53:22;;;;;;;;;;;27.50;54.60;;;;;;5133062;28;19966;-59
2021/07/09 08:55:49;;;;;;;;;;;27.60;54.50;;;;;;5132840;28;20366;-59
2021/07/09 08:58:16;;;;;;;;;;;27.60;54.50;;;;;;5130260;28;19931;-60
2021/07/09 09:00:44;;;;;;;;;;;27.60;54.30;;;;;;5131854;28;19923;-60
2021/07/09 09:03:15;;;;;;;;;;;27.60;54.30;;;;;;5130283;28;19953;-60
2021/07/09 09:05:43;;;;;;;;;;;27.50;54.20;;;;;;5130591;28;19923;-60
2021/07/09 09:08:11;;;;;;;;;;;27.50;54.30;;;;;;5130551;28;19927;-60
2021/07/09 09:10:45;;;;;;;;;;;27.50;54.30;;;;;;5132992;27;19992;-60
2021/07/09 09:13:15;;;;;;;;;;;27.50;54.20;;;;;;5134535;27;19924;-60
2021/07/09 09:15:44;;;;;;;;;;;27.40;54.10;;;;;;5133075;27;19923;-60
2021/07/09 09:18:31;;;;;;;;;;;27.50;54.10;;;;;;5133451;27;19928;-60
2021/07/09 09:21:00;;;;;;;;;;;27.40;53.70;;;;;;5132652;27;20402;-60
2021/07/09 09:23:28;;;;;;;;;;;27.40;53.70;;;;;;5102095;27;19931;-60
2021/07/09 09:25:55;;;;;;;;;;;27.40;53.30;;;;;;5134855;27;19923;-60
2021/07/09 09:28:22;;;;;;;;;;;27.40;53.30;;;;;;5115991;27;19943;-60
2021/07/09 09:30:51;;;;;;;;;;;27.40;53.20;;;;;;5135510;27;19924;-60
2021/07/09 09:33:18;;;;;;;;;;;27.40;52.90;;;;;;5134355;27;19924;-60
2021/07/09 09:35:48;;;;;;;;;;;27.40;53.00;;;;;;5133804;27;19977;-60
2021/07/09 09:38:15;;;;;;;;;;;27.40;53.00;;;;;;5115760;27;19930;-60
2021/07/09 09:40:43;;;;;;;;;;;27.40;53.00;;;;;;5123514;27;19958;-60
2021/07/09 09:43:12;;;;;;;;;;;27.40;53.20;;;;;;5134806;27;20550;-60
2021/07/09 09:45:39;;;;;;;;;;;27.50;53.60;;;;;;5126473;27;19928;-60
2021/07/09 09:48:13;;;;;;;;;;;27.50;53.60;;;;;;5116029;27;19930;-60
2021/07/09 09:50:42;;;;;;;;;;;27.50;53.10;;;;;;5132796;27;19927;-60
2021/07/09 09:53:09;;;;;;;;;;;27.60;53.30;;;;;;5134304;27;20372;-60
2021/07/09 09:55:36;;;;;;;;;;;27.70;53.20;;;;;;5132492;27;20010;-60
2021/07/09 09:58:22;;;;;;;;;;;27.70;52.30;;;;;;5135692;27;19969;-60
2021/07/09 10:00:51;;;;;;;;;;;27.80;52.40;;;;;;5133013;27;19927;-60
2021/07/09 10:03:19;;;;;;;;;;;27.80;52.40;;;;;;5132197;27;19923;-60
2021/07/09 10:05:47;;;;;;;;;;;27.80;52.20;;;;;;5132216;27;19924;-60
2021/07/09 10:08:14;;;;;;;;;;;27.80;52.40;;;;;;5132729;27;19927;-60
2021/07/09 10:10:42;;;;;;;;;;;27.80;51.80;;;;;;5131694;27;19923;-60
2021/07/09 10:13:13;;;;;;;;;;;27.80;51.80;;;;;;5133109;27;20006;-60
2021/07/09 10:15:41;;;;;;;;;;;27.80;51.90;;;;;;5123064;27;19924;-60
2021/07/09 10:18:13;;;;;;;;;;;27.80;51.80;;;;;;5125771;27;19931;-60
2021/07/09 10:20:40;;;;;;;;;;;27.70;51.70;;;;;;5134228;27;20012;-60
2021/07/09 10:23:09;;;;;;;;;;;27.80;51.80;;;;;;5132750;27;19923;-60
2021/07/09 10:25:36;;;;;;;;;;;27.80;51.50;;;;;;5133752;27;20387;-60
2021/07/09 10:28:08;;;;;;;;;;;27.80;51.30;;;;;;5131079;27;19931;-60
2021/07/09 10:30:36;;;;;;;;;;;27.80;51.30;;;;;;5132511;27;19931;-60
2021/07/09 10:33:23;;;;;;;;;;;27.90;51.40;;;;;;5135001;27;20422;-60
2021/07/09 10:35:50;;;;;;;;;;;27.90;51.40;;;;;;5127741;27;20306;-60
2021/07/09 10:38:19;;;;;;;;;;;27.90;51.00;;;;;;5122470;27;20047;-60
2021/07/09 10:40:46;;;;;;;;;;;28.00;50.40;;;;;;5132794;27;19975;-60
2021/07/09 10:43:13;;;;;;;;;;;28.00;50.80;;;;;;5133425;27;19963;-60
2021/07/09 10:45:41;;;;;;;;;;;28.00;50.80;;;;;;5132505;27;20347;-60
2021/07/09 10:48:12;;;;;;;;;;;28.00;50.80;;;;;;5132657;27;19927;-60
2021/07/09 10:50:57;;;;;;;;;;;28.00;50.40;;;;;;5133617;27;19935;-60
2021/07/09 10:53:29;;;;;;;;;;;28.00;50.40;;;;;;5131026;27;19930;-60
2021/07/09 10:56:00;;;;;;;;;;;28.00;50.20;;;;;;5131991;27;19966;-59
2021/07/09 10:58:33;;;;;;;;;;;28.00;50.50;;;;;;5129587;27;19923;-59
2021/07/09 11:01:03;;;;;;;;;;;28.00;50.30;;;;;;5124577;27;20379;-60
2021/07/09 11:03:29;;;;;;;;;;;28.00;50.20;;;;;;5129394;27;19930;-60
2021/07/09 11:06:03;;;;;;;;;;;28.00;50.00;;;;;;5119453;27;19942;-60
2021/07/09 11:08:50;;;;;;;;;;;28.00;49.80;;;;;;5123106;27;19963;-60
2021/07/09 11:11:28;;;;;;;;;;;28.10;49.60;;;;;;5128448;27;19923;-60
2021/07/09 11:14:03;;;;;;;;;;;28.10;49.50;;;;;;5120992;27;19968;-60
2021/07/09 11:16:38;;;;;;;;;;;28.10;49.30;;;;;;5131191;27;19949;-61
2021/07/09 11:19:18;;;;;;;;;;;28.10;48.90;;;;;;5128638;27;20339;-60
2021/07/09 11:21:51;;;;;;;;;;;28.10;48.90;;;;;;5129530;27;19924;-60
2021/07/09 11:24:24;;;;;;;;;;;28.10;48.50;;;;;;5114500;27;20006;-60
2021/07/09 11:27:00;;;;;;;;;;;28.10;48.50;;;;;;5129999;27;19923;-60
2021/07/09 11:29:34;;;;;;;;;;;28.10;48.60;;;;;;5126048;27;20018;-60
2021/07/09 11:32:08;;;;;;;;;;;28.10;48.60;;;;;;5129083;27;19923;-60
2021/07/09 11:34:39;;;;;;;;;;;28.10;48.60;;;;;;5118626;27;20035;-60
2021/07/09 11:37:17;;;;;;;;;;;28.10;48.50;;;;;;5132292;27;19999;-60
2021/07/09 11:39:45;;;;;;;;;;;28.10;48.40;;;;;;5130354;27;19924;-60
2021/07/09 11:42:13;;;;;;;;;;;28.00;48.50;;;;;;5131700;27;19976;-60
2021/07/09 11:44:42;;;;;;;;;;;28.00;48.50;;;;;;5126032;27;20291;-60
2021/07/09 11:47:29;;;;;;;;;;;27.90;48.50;;;;;;5116483;27;19978;-60
2021/07/09 11:49:58;;;;;;;;;;;28.00;48.60;;;;;;5116706;27;19923;-60
2021/07/09 11:52:32;;;;;;;;;;;27.90;48.60;;;;;;5118707;28;20033;-60
2021/07/09 11:55:07;;;;;;;;;;;27.90;48.80;;;;;;5118664;27;20363;-60
2021/07/09 11:57:40;;;;;;;;;;;27.90;48.80;;;;;;5124449;27;20006;-60
2021/07/09 12:00:11;;;;;;;;;;;27.90;49.00;;;;;;5118917;27;19930;-60
2021/07/09 12:02:39;;;;;;;;;;;27.90;49.10;;;;;;5114700;28;19955;-60
2021/07/09 12:05:13;;;;;;;;;;;27.90;49.00;;;;;;5117069;28;19970;-58
2021/07/09 12:07:41;;;;;;;;;;;27.90;48.80;;;;;;5126053;28;19930;-59
2021/07/09 12:10:17;;;;;;;;;;;27.90;48.70;;;;;;5129835;28;19928;-59
2021/07/09 12:12:46;;;;;;;;;;;27.90;48.70;;;;;;5116177;28;19924;-59
2021/07/09 12:15:21;;;;;;;;;;;27.90;48.80;;;;;;5130820;28;20363;-59
2021/07/09 12:17:48;;;;;;;;;;;27.90;48.70;;;;;;5131078;28;20291;-59
2021/07/09 12:20:23;;;;;;;;;;;27.90;48.60;;;;;;5129702;28;19972;-59
2021/07/09 12:22:56;;;;;;;;;;;27.90;48.60;;;;;;5132380;28;19923;-59
2021/07/09 12:25:24;;;;;;;;;;;27.90;48.50;;;;;;5117254;28;19966;-59
2021/07/09 12:27:56;;;;;;;;;;;27.90;48.60;;;;;;5131060;28;20001;-59
2021/07/09 12:30:25;;;;;;;;;;;27.90;48.60;;;;;;5097278;28;20324;-59
2021/07/09 12:32:56;;;;;;;;;;;27.90;48.10;;;;;;5114860;28;20274;-59
2021/07/09 12:35:40;;;;;;;;;;;27.90;48.40;;;;;;5114852;28;19931;-58
2021/07/09 12:38:10;;;;;;;;;;;27.90;48.40;;;;;;5131667;28;19963;-59
2021/07/09 12:40:38;;;;;;;;;;;27.90;48.60;;;;;;5114085;28;20403;-59
2021/07/09 12:43:09;;;;;;;;;;;27.90;48.40;;;;;;5131045;28;19924;-59
2021/07/09 12:45:36;;;;;;;;;;;27.90;48.50;;;;;;5132723;27;19971;-59
2021/07/09 12:48:29;;;;;;;;;;;27.90;48.60;;;;;;5116537;28;19924;-59
2021/07/09 12:50:56;;;;;;;;;;;27.90;48.80;;;;;;5116877;28;19936;-59
2021/07/09 12:53:23;;;;;;;;;;;27.90;48.70;;;;;;5136825;27;19984;-60
2021/07/09 12:55:51;;;;;;;;;;;27.90;48.60;;;;;;5137206;27;19967;-60
2021/07/09 12:58:19;;;;;;;;;;;27.90;48.40;;;;;;5117987;27;20423;-60
2021/07/09 13:00:48;;;;;;;;;;;28.00;48.80;;;;;;5136216;27;20030;-60
2021/07/09 13:03:25;;;;;;;;;;;27.90;48.80;;;;;;5118979;27;19977;-60
2021/07/09 13:06:05;;;;;;;;;;;27.90;48.60;;;;;;5136365;27;20320;-60
2021/07/09 13:08:33;;;;;;;;;;;27.90;48.40;;;;;;5134600;27;20027;-60
2021/07/09 13:11:13;;;;;;;;;;;27.90;48.50;;;;;;5134630;27;19963;-60
2021/07/09 13:13:40;;;;;;;;;;;27.80;48.50;;;;;;5134870;27;19927;-60
2021/07/09 13:16:12;;;;;;;;;;;27.90;48.50;;;;;;5135649;27;20376;-60
2021/07/09 13:18:40;;;;;;;;;;;27.80;48.20;;;;;;5135799;27;19930;-60
2021/07/09 13:21:10;;;;;;;;;;;27.80;48.10;;;;;;5136255;27;19923;-60
2021/07/09 13:23:38;;;;;;;;;;;27.80;48.00;;;;;;5133867;27;19923;-60
2021/07/09 13:26:11;;;;;;;;;;;27.80;48.50;;;;;;5133858;27;20002;-60
2021/07/09 13:28:40;;;;;;;;;;;27.80;48.20;;;;;;5134387;27;19923;-60
2021/07/09 13:31:07;;;;;;;;;;;27.80;48.20;;;;;;5133896;27;19930;-60
2021/07/09 13:33:37;;;;;;;;;;;27.70;48.40;;;;;;5132420;27;19923;-60
2021/07/09 13:36:07;;;;;;;;;;;27.70;48.10;;;;;;5132971;27;19966;-60
2021/07/09 13:38:34;;;;;;;;;;;27.70;48.30;;;;;;5133573;27;19927;-60
2021/07/09 13:41:01;;;;;;;;;;;27.70;48.00;;;;;;5135103;27;19984;-60
2021/07/09 13:43:28;;;;;;;;;;;27.70;47.30;;;;;;5117754;27;19923;-60
2021/07/09 13:45:56;;;;;;;;;;;27.70;47.60;;;;;;5133745;27;20006;-60
2021/07/09 13:48:23;;;;;;;;;;;27.70;47.40;;;;;;5125031;27;19977;-60
2021/07/09 13:50:50;;;;;;;;;;;27.70;47.30;;;;;;5124907;27;19953;-60
2021/07/09 13:53:17;;;;;;;;;;;27.70;47.60;;;;;;5132958;27;20308;-60
2021/07/09 13:55:44;;;;;;;;;;;27.70;47.30;;;;;;5128193;27;19970;-60
2021/07/09 13:58:11;;;;;;;;;;;27.70;47.20;;;;;;5101890;27;19924;-60
2021/07/09 14:00:38;;;;;;;;;;;27.60;46.70;;;;;;5134758;27;19959;-60
2021/07/09 14:03:05;;;;;;;;;;;27.60;46.80;;;;;;5132319;27;19923;-60
2021/07/09 14:05:33;;;;;;;;;;;27.60;47.00;;;;;;5134183;27;19963;-60
2021/07/09 14:08:01;;;;;;;;;;;27.60;47.30;;;;;;5133276;27;20047;-60
2021/07/09 14:10:28;;;;;;;;;;;27.60;47.30;;;;;;5134197;27;19924;-60
2021/07/09 14:12:55;;;;;;;;;;;27.60;47.10;;;;;;5135495;27;19988;-60
2021/07/09 14:15:28;;;;;;;;;;;27.60;47.20;;;;;;5133221;27;20007;-60
2021/07/09 14:17:55;;;;;;;;;;;27.60;47.30;;;;;;5135473;27;19923;-60
2021/07/09 14:20:24;;;;;;;;;;;27.60;47.30;;;;;;5129481;27;20419;-60
2021/07/09 14:22:51;;;;;;;;;;;27.60;47.30;;;;;;5133509;27;20341;-59
2021/07/09 14:25:18;;;;;;;;;;;27.60;47.30;;;;;;5132242;27;19924;-60